JES102 SABE-SACO
Flight info
| Callsign | JES102 |
|---|---|
| Flight time | 1h 43m |
| Altitude | 36000 |
| Route | ATOVO4B ATOVO UW5 ASISA ASISA1Q |
| Aircraft | A20N/M-SDE2E3FGHIRWXY/LB1 |
Departure
| Time | 2026-05-03 20:36 |
|---|---|
| Airport | Aeroparque Jorge Newbery (SABE) |
Arrival
| Time | 2026-05-03 22:20 |
|---|---|
| Airport | Ingeniero Aeronáutico Ambrosio L.V. Taravella International Airport (SACO) |
| Time | Latitude | Longitude | Altitude | Speed | Heading |
|---|---|---|---|---|---|
| 2026-05-03 20:15 | -34.55816 | -58.41405 | 56 ft | 0 kts | 212° |
| 2026-05-03 20:26 | -34.55815 | -58.41405 | 29 ft | 2 kts | 213° |
| 2026-05-03 20:26 | -34.55802 | -58.41393 | 29 ft | 2 kts | 221° |
| 2026-05-03 20:27 | -34.55791 | -58.41377 | 29 ft | 2 kts | 253° |
| 2026-05-03 20:27 | -34.55792 | -58.41358 | 29 ft | 2 kts | 293° |
| 2026-05-03 20:27 | -34.55797 | -58.41345 | 29 ft | 1 kts | 300° |
| 2026-05-03 20:27 | -34.55798 | -58.41343 | 29 ft | 0 kts | 301° |
| 2026-05-03 20:30 | -34.55798 | -58.41344 | 29 ft | 0 kts | 301° |
| 2026-05-03 20:30 | -34.55774 | -58.41391 | 29 ft | 13 kts | 304° |
| 2026-05-03 20:31 | -34.55719 | -58.41507 | 30 ft | 14 kts | 277° |
| 2026-05-03 20:31 | -34.55764 | -58.41585 | 30 ft | 10 kts | 199° |
| 2026-05-03 20:31 | -34.55813 | -58.41552 | 29 ft | 8 kts | 117° |
| 2026-05-03 20:31 | -34.55848 | -58.41468 | 29 ft | 18 kts | 117° |
| 2026-05-03 20:32 | -34.55893 | -58.41361 | 29 ft | 23 kts | 117° |
| 2026-05-03 20:32 | -34.56010 | -58.41154 | 29 ft | 22 kts | 126° |
| 2026-05-03 20:32 | -34.56085 | -58.41031 | 29 ft | 16 kts | 127° |
| 2026-05-03 20:32 | -34.56152 | -58.40930 | 28 ft | 15 kts | 130° |
| 2026-05-03 20:33 | -34.56199 | -58.40862 | 28 ft | 16 kts | 131° |
| 2026-05-03 20:33 | -34.56270 | -58.40762 | 27 ft | 16 kts | 130° |
| 2026-05-03 20:33 | -34.56328 | -58.40679 | 27 ft | 0 kts | 130° |
| 2026-05-03 20:34 | -34.56332 | -58.40673 | 27 ft | 5 kts | 130° |
| 2026-05-03 20:34 | -34.56393 | -58.40631 | 25 ft | 14 kts | 173° |
| 2026-05-03 20:35 | -34.56430 | -58.40657 | 25 ft | 3 kts | 272° |
| 2026-05-03 20:35 | -34.56426 | -58.40668 | 25 ft | 0 kts | 297° |
| 2026-05-03 20:35 | -34.56376 | -58.40772 | 26 ft | 46 kts | 302° |
| 2026-05-03 20:36 | -34.56053 | -58.41339 | 29 ft | 115 kts | 305° |
| 2026-05-03 20:36 | -34.55516 | -58.42306 | 196 ft | 155 kts | 304° |
| 2026-05-03 20:36 | -34.54951 | -58.43395 | 989 ft | 145 kts | 306° |
| 2026-05-03 20:36 | -34.54254 | -58.44137 | 1844 ft | 135 kts | 347° |
| 2026-05-03 20:37 | -34.53216 | -58.44010 | 2283 ft | 174 kts | 20° |
| 2026-05-03 20:37 | -34.52107 | -58.43143 | 2788 ft | 204 kts | 33° |
| 2026-05-03 20:37 | -34.50897 | -58.41983 | 3122 ft | 238 kts | 35° |
| 2026-05-03 20:37 | -34.49546 | -58.40684 | 3779 ft | 254 kts | 34° |
| 2026-05-03 20:38 | -34.48125 | -58.39344 | 4492 ft | 261 kts | 34° |
| 2026-05-03 20:38 | -34.46646 | -58.38015 | 5002 ft | 266 kts | 30° |
| 2026-05-03 20:38 | -34.45001 | -58.36888 | 5740 ft | 271 kts | 21° |
| 2026-05-03 20:38 | -34.43239 | -58.36121 | 6665 ft | 273 kts | 11° |
| 2026-05-03 20:39 | -34.41366 | -58.35743 | 7597 ft | 272 kts | 360° |
| 2026-05-03 20:39 | -34.39474 | -58.35781 | 8550 ft | 272 kts | 349° |
| 2026-05-03 20:39 | -34.37624 | -58.36221 | 9260 ft | 271 kts | 339° |
| 2026-05-03 20:39 | -34.35901 | -58.37042 | 9778 ft | 269 kts | 329° |
| 2026-05-03 20:40 | -34.34284 | -58.38241 | 10276 ft | 271 kts | 320° |
| 2026-05-03 20:40 | -34.32894 | -58.39861 | 10743 ft | 287 kts | 306° |
| 2026-05-03 20:40 | -34.31764 | -58.41936 | 11219 ft | 303 kts | 298° |
| 2026-05-03 20:40 | -34.30795 | -58.44225 | 11692 ft | 307 kts | 294° |
| 2026-05-03 20:41 | -34.29938 | -58.46614 | 12192 ft | 310 kts | 291° |
| 2026-05-03 20:41 | -34.29134 | -58.49042 | 12688 ft | 313 kts | 290° |
| 2026-05-03 20:41 | -34.28341 | -58.51481 | 13194 ft | 316 kts | 290° |
| 2026-05-03 20:41 | -34.27528 | -58.53957 | 13716 ft | 319 kts | 290° |
| 2026-05-03 20:42 | -34.26683 | -58.56480 | 14191 ft | 322 kts | 290° |
| 2026-05-03 20:42 | -34.25837 | -58.58960 | 14654 ft | 324 kts | 290° |
| 2026-05-03 20:42 | -34.24962 | -58.61491 | 15127 ft | 326 kts | 290° |
| 2026-05-03 20:42 | -34.24080 | -58.64022 | 15602 ft | 328 kts | 290° |
| 2026-05-03 20:43 | -34.23186 | -58.66577 | 16091 ft | 330 kts | 290° |
| 2026-05-03 20:43 | -34.22283 | -58.69153 | 16592 ft | 333 kts | 290° |
| 2026-05-03 20:43 | -34.21379 | -58.71730 | 17076 ft | 335 kts | 290° |
| 2026-05-03 20:43 | -34.20464 | -58.74339 | 17599 ft | 337 kts | 290° |
| 2026-05-03 20:44 | -34.19542 | -58.76968 | 18119 ft | 340 kts | 289° |
| 2026-05-03 20:44 | -34.18619 | -58.79600 | 18608 ft | 342 kts | 289° |
| 2026-05-03 20:44 | -34.17688 | -58.82253 | 19069 ft | 344 kts | 289° |
| 2026-05-03 20:44 | -34.16750 | -58.84923 | 19528 ft | 347 kts | 289° |
| 2026-05-03 20:45 | -34.15801 | -58.87623 | 20007 ft | 349 kts | 289° |
| 2026-05-03 20:45 | -34.14851 | -58.90324 | 20486 ft | 351 kts | 289° |
| 2026-05-03 20:45 | -34.13890 | -58.93053 | 20976 ft | 353 kts | 289° |
| 2026-05-03 20:45 | -34.12938 | -58.95755 | 21464 ft | 356 kts | 289° |
| 2026-05-03 20:46 | -34.11964 | -58.98516 | 21969 ft | 358 kts | 289° |
| 2026-05-03 20:46 | -34.10985 | -59.01290 | 22477 ft | 361 kts | 289° |
| 2026-05-03 20:46 | -34.09995 | -59.04091 | 23005 ft | 364 kts | 289° |
| 2026-05-03 20:46 | -34.08998 | -59.06912 | 23543 ft | 366 kts | 289° |
| 2026-05-03 20:47 | -34.07989 | -59.09763 | 24006 ft | 369 kts | 289° |
| 2026-05-03 20:47 | -34.06954 | -59.12614 | 24459 ft | 373 kts | 291° |
| 2026-05-03 20:47 | -34.05657 | -59.15355 | 24918 ft | 380 kts | 299° |
| 2026-05-03 20:47 | -34.04095 | -59.17944 | 25384 ft | 384 kts | 302° |
| 2026-05-03 20:48 | -34.02435 | -59.20479 | 25865 ft | 387 kts | 303° |
| 2026-05-03 20:48 | -34.00710 | -59.22993 | 26346 ft | 389 kts | 304° |
| 2026-05-03 20:48 | -33.98956 | -59.25492 | 26944 ft | 387 kts | 304° |
| 2026-05-03 20:48 | -33.97229 | -59.27930 | 27701 ft | 380 kts | 304° |
| 2026-05-03 20:49 | -33.95523 | -59.30339 | 28482 ft | 373 kts | 303° |
| 2026-05-03 20:49 | -33.93862 | -59.32694 | 29287 ft | 364 kts | 303° |
| 2026-05-03 20:49 | -33.92242 | -59.35001 | 30009 ft | 358 kts | 302° |
| 2026-05-03 20:49 | -33.90645 | -59.37289 | 30509 ft | 356 kts | 302° |
| 2026-05-03 20:50 | -33.89081 | -59.39536 | 30984 ft | 352 kts | 302° |
| 2026-05-03 20:50 | -33.87513 | -59.41789 | 31469 ft | 348 kts | 302° |
| 2026-05-03 20:50 | -33.85947 | -59.44038 | 31967 ft | 344 kts | 301° |
| 2026-05-03 20:50 | -33.84422 | -59.46224 | 32467 ft | 339 kts | 301° |
| 2026-05-03 20:51 | -33.82916 | -59.48377 | 32983 ft | 333 kts | 301° |
| 2026-05-03 20:51 | -33.81438 | -59.50489 | 33464 ft | 327 kts | 301° |
| 2026-05-03 20:51 | -33.79990 | -59.52563 | 33747 ft | 328 kts | 300° |
| 2026-05-03 20:51 | -33.78508 | -59.54690 | 34017 ft | 328 kts | 300° |
| 2026-05-03 20:52 | -33.77063 | -59.56763 | 34250 ft | 328 kts | 300° |
| 2026-05-03 20:52 | -33.75597 | -59.58862 | 34426 ft | 330 kts | 300° |
| 2026-05-03 20:52 | -33.74086 | -59.61038 | 34198 ft | 345 kts | 300° |
| 2026-05-03 20:52 | -33.72513 | -59.63311 | 33952 ft | 361 kts | 301° |
| 2026-05-03 20:53 | -33.70868 | -59.65679 | 33693 ft | 377 kts | 301° |
| 2026-05-03 20:53 | -33.67403 | -59.70604 | 33788 ft | 391 kts | 302° |
| 2026-05-03 20:53 | -33.65634 | -59.73101 | 33909 ft | 396 kts | 302° |
| 2026-05-03 20:54 | -33.63839 | -59.75634 | 34030 ft | 400 kts | 302° |
| 2026-05-03 20:54 | -33.58427 | -59.83262 | 34066 ft | 398 kts | 302° |
| 2026-05-03 20:55 | -33.54841 | -59.88326 | 34061 ft | 398 kts | 302° |
| 2026-05-03 20:55 | -33.51251 | -59.93397 | 34063 ft | 398 kts | 302° |
| 2026-05-03 20:56 | -33.47666 | -59.98455 | 34060 ft | 398 kts | 302° |
| 2026-05-03 20:56 | -33.44100 | -60.03478 | 34060 ft | 398 kts | 302° |
| 2026-05-03 20:57 | -33.40501 | -60.08540 | 34059 ft | 398 kts | 302° |
| 2026-05-03 20:57 | -33.36904 | -60.13591 | 34059 ft | 398 kts | 302° |
| 2026-05-03 20:58 | -33.33307 | -60.18636 | 34059 ft | 398 kts | 302° |
| 2026-05-03 20:58 | -33.29707 | -60.23677 | 34054 ft | 398 kts | 302° |
| 2026-05-03 20:59 | -33.26106 | -60.28712 | 34051 ft | 398 kts | 302° |
| 2026-05-03 20:59 | -33.22498 | -60.33751 | 34051 ft | 398 kts | 302° |
| 2026-05-03 21:00 | -33.20113 | -60.37079 | 34050 ft | 399 kts | 302° |
| 2026-05-03 21:00 | -33.15281 | -60.43810 | 34051 ft | 399 kts | 302° |
| 2026-05-03 21:01 | -33.11670 | -60.48831 | 34050 ft | 399 kts | 302° |
| 2026-05-03 21:01 | -33.08076 | -60.53822 | 34046 ft | 399 kts | 302° |
| 2026-05-03 21:02 | -33.04456 | -60.58843 | 34043 ft | 399 kts | 302° |
| 2026-05-03 21:02 | -33.00837 | -60.63856 | 34046 ft | 399 kts | 302° |
| 2026-05-03 21:03 | -32.97218 | -60.68861 | 34050 ft | 399 kts | 302° |
| 2026-05-03 21:03 | -32.93596 | -60.73865 | 34047 ft | 399 kts | 302° |
| 2026-05-03 21:04 | -32.90182 | -60.78998 | 34046 ft | 391 kts | 295° |
| 2026-05-03 21:04 | -32.87325 | -60.84497 | 34046 ft | 389 kts | 293° |
| 2026-05-03 21:05 | -32.84588 | -60.90046 | 34046 ft | 388 kts | 292° |
| 2026-05-03 21:05 | -32.81864 | -60.95603 | 34042 ft | 388 kts | 292° |
| 2026-05-03 21:06 | -32.79143 | -61.01121 | 34042 ft | 388 kts | 292° |
| 2026-05-03 21:06 | -32.76401 | -61.06653 | 34041 ft | 388 kts | 293° |
| 2026-05-03 21:07 | -32.73651 | -61.12188 | 34039 ft | 388 kts | 293° |
| 2026-05-03 21:07 | -32.71370 | -61.16773 | 34036 ft | 388 kts | 293° |
| 2026-05-03 21:08 | -32.68619 | -61.22295 | 34037 ft | 388 kts | 293° |
| 2026-05-03 21:08 | -32.65871 | -61.27803 | 34036 ft | 388 kts | 293° |
| 2026-05-03 21:09 | -32.63119 | -61.33311 | 34030 ft | 388 kts | 293° |
| 2026-05-03 21:09 | -32.60361 | -61.38824 | 34038 ft | 388 kts | 293° |
| 2026-05-03 21:10 | -32.57602 | -61.44330 | 34032 ft | 388 kts | 293° |
| 2026-05-03 21:10 | -32.54843 | -61.49828 | 34034 ft | 388 kts | 293° |
| 2026-05-03 21:11 | -32.52081 | -61.55325 | 34035 ft | 391 kts | 293° |
| 2026-05-03 21:11 | -32.49266 | -61.60942 | 34030 ft | 406 kts | 294° |
| 2026-05-03 21:12 | -32.46330 | -61.66771 | 34029 ft | 410 kts | 294° |
| 2026-05-03 21:12 | -32.43396 | -61.72562 | 34026 ft | 409 kts | 294° |
| 2026-05-03 21:13 | -32.40473 | -61.78330 | 34021 ft | 405 kts | 294° |
| 2026-05-03 21:13 | -32.39033 | -61.81163 | 33736 ft | 397 kts | 294° |
| 2026-05-03 21:13 | -32.37615 | -61.83953 | 33206 ft | 394 kts | 294° |
| 2026-05-03 21:14 | -32.36213 | -61.86718 | 32673 ft | 391 kts | 294° |
| 2026-05-03 21:14 | -32.34818 | -61.89471 | 32148 ft | 389 kts | 294° |
| 2026-05-03 21:14 | -32.33443 | -61.92183 | 31657 ft | 386 kts | 294° |
| 2026-05-03 21:14 | -32.32070 | -61.94890 | 31164 ft | 383 kts | 294° |
| 2026-05-03 21:15 | -32.30699 | -61.97590 | 30677 ft | 381 kts | 294° |
| 2026-05-03 21:15 | -32.29340 | -62.00263 | 30205 ft | 379 kts | 294° |
| 2026-05-03 21:15 | -32.27987 | -62.02925 | 29680 ft | 376 kts | 295° |
| 2026-05-03 21:15 | -32.26642 | -62.05568 | 29151 ft | 373 kts | 295° |
| 2026-05-03 21:16 | -32.25306 | -62.08188 | 28656 ft | 370 kts | 295° |
| 2026-05-03 21:16 | -32.23985 | -62.10780 | 28167 ft | 367 kts | 295° |
| 2026-05-03 21:16 | -32.22671 | -62.13355 | 27680 ft | 364 kts | 295° |
| 2026-05-03 21:16 | -32.21368 | -62.15908 | 27206 ft | 362 kts | 295° |
| 2026-05-03 21:17 | -32.20075 | -62.18439 | 26738 ft | 359 kts | 295° |
| 2026-05-03 21:17 | -32.19222 | -62.20107 | 26431 ft | 357 kts | 295° |
| 2026-05-03 21:17 | -32.17511 | -62.23453 | 25834 ft | 354 kts | 295° |
| 2026-05-03 21:17 | -32.16242 | -62.25933 | 25395 ft | 351 kts | 295° |
| 2026-05-03 21:18 | -32.14978 | -62.28401 | 24970 ft | 349 kts | 295° |
| 2026-05-03 21:18 | -32.13727 | -62.30844 | 24533 ft | 347 kts | 295° |
| 2026-05-03 21:18 | -32.12496 | -62.33243 | 24110 ft | 345 kts | 295° |
| 2026-05-03 21:18 | -32.11259 | -62.35654 | 23698 ft | 343 kts | 295° |
| 2026-05-03 21:19 | -32.10025 | -62.38058 | 23208 ft | 341 kts | 295° |
| 2026-05-03 21:19 | -32.08800 | -62.40442 | 22706 ft | 339 kts | 296° |
| 2026-05-03 21:19 | -32.07584 | -62.42810 | 22217 ft | 337 kts | 296° |
| 2026-05-03 21:19 | -32.06371 | -62.45167 | 21727 ft | 335 kts | 296° |
| 2026-05-03 21:20 | -32.05168 | -62.47505 | 21246 ft | 333 kts | 296° |
| 2026-05-03 21:20 | -32.03966 | -62.49838 | 20773 ft | 331 kts | 296° |
| 2026-05-03 21:20 | -32.02772 | -62.52156 | 20310 ft | 329 kts | 296° |
| 2026-05-03 21:20 | -32.01586 | -62.54456 | 19854 ft | 327 kts | 297° |
| 2026-05-03 21:21 | -32.00408 | -62.56738 | 19395 ft | 326 kts | 297° |
| 2026-05-03 21:21 | -31.99233 | -62.59014 | 18945 ft | 324 kts | 297° |
| 2026-05-03 21:21 | -31.98060 | -62.61285 | 18507 ft | 322 kts | 297° |
| 2026-05-03 21:21 | -31.96899 | -62.63530 | 18020 ft | 321 kts | 297° |
| 2026-05-03 21:22 | -31.95737 | -62.65777 | 17508 ft | 320 kts | 298° |
| 2026-05-03 21:22 | -31.94584 | -62.68006 | 16995 ft | 319 kts | 298° |
| 2026-05-03 21:22 | -31.93433 | -62.70229 | 16496 ft | 318 kts | 298° |
| 2026-05-03 21:22 | -31.92281 | -62.72454 | 16022 ft | 316 kts | 298° |
| 2026-05-03 21:23 | -31.91137 | -62.74660 | 15527 ft | 316 kts | 298° |
| 2026-05-03 21:23 | -31.89996 | -62.76859 | 15051 ft | 315 kts | 299° |
| 2026-05-03 21:23 | -31.88870 | -62.79028 | 14590 ft | 313 kts | 299° |
| 2026-05-03 21:23 | -31.87737 | -62.81208 | 14160 ft | 311 kts | 299° |
| 2026-05-03 21:24 | -31.86607 | -62.83382 | 13724 ft | 310 kts | 299° |
| 2026-05-03 21:24 | -31.85485 | -62.85538 | 13241 ft | 308 kts | 300° |
| 2026-05-03 21:24 | -31.84369 | -62.87682 | 12779 ft | 306 kts | 300° |
| 2026-05-03 21:24 | -31.83261 | -62.89809 | 12342 ft | 303 kts | 300° |
| 2026-05-03 21:25 | -31.82167 | -62.91911 | 12068 ft | 300 kts | 300° |
| 2026-05-03 21:25 | -31.81073 | -62.94010 | 12015 ft | 300 kts | 300° |
| 2026-05-03 21:25 | -31.79979 | -62.96109 | 12013 ft | 301 kts | 300° |
| 2026-05-03 21:25 | -31.78887 | -62.98203 | 12014 ft | 301 kts | 300° |
| 2026-05-03 21:26 | -31.77788 | -63.00307 | 12011 ft | 301 kts | 300° |
| 2026-05-03 21:26 | -31.76695 | -63.02399 | 12012 ft | 301 kts | 300° |
| 2026-05-03 21:26 | -31.75599 | -63.04498 | 12013 ft | 301 kts | 300° |
| 2026-05-03 21:26 | -31.74504 | -63.06593 | 12012 ft | 301 kts | 300° |
| 2026-05-03 21:27 | -31.73406 | -63.08690 | 12012 ft | 301 kts | 300° |
| 2026-05-03 21:27 | -31.72324 | -63.10756 | 12013 ft | 301 kts | 300° |
| 2026-05-03 21:27 | -31.71222 | -63.12859 | 12016 ft | 301 kts | 300° |
| 2026-05-03 21:27 | -31.70127 | -63.14949 | 12015 ft | 301 kts | 300° |
| 2026-05-03 21:28 | -31.69030 | -63.17039 | 12013 ft | 301 kts | 300° |
| 2026-05-03 21:28 | -31.67918 | -63.19123 | 12012 ft | 301 kts | 303° |
| 2026-05-03 21:28 | -31.66589 | -63.21034 | 11869 ft | 302 kts | 311° |
| 2026-05-03 21:28 | -31.65138 | -63.22814 | 11429 ft | 300 kts | 312° |
| 2026-05-03 21:29 | -31.63687 | -63.24555 | 11013 ft | 297 kts | 312° |
| 2026-05-03 21:29 | -31.62266 | -63.26264 | 10594 ft | 295 kts | 312° |
| 2026-05-03 21:29 | -31.60838 | -63.27992 | 10204 ft | 293 kts | 312° |
| 2026-05-03 21:29 | -31.59428 | -63.29709 | 10036 ft | 292 kts | 312° |
| 2026-05-03 21:30 | -31.58020 | -63.31428 | 10008 ft | 293 kts | 313° |
| 2026-05-03 21:30 | -31.56603 | -63.33158 | 9854 ft | 292 kts | 313° |
| 2026-05-03 21:30 | -31.55211 | -63.34863 | 9593 ft | 285 kts | 313° |
| 2026-05-03 21:30 | -31.53857 | -63.36536 | 9394 ft | 281 kts | 312° |
| 2026-05-03 21:31 | -31.52526 | -63.38200 | 9150 ft | 279 kts | 311° |
| 2026-05-03 21:31 | -31.51247 | -63.39903 | 9019 ft | 277 kts | 310° |
| 2026-05-03 21:31 | -31.49993 | -63.41612 | 8712 ft | 276 kts | 311° |
| 2026-05-03 21:31 | -31.48766 | -63.43320 | 8302 ft | 273 kts | 311° |
| 2026-05-03 21:32 | -31.47566 | -63.45025 | 7926 ft | 269 kts | 310° |
| 2026-05-03 21:32 | -31.46561 | -63.46869 | 7495 ft | 269 kts | 297° |
| 2026-05-03 21:32 | -31.46007 | -63.48968 | 7093 ft | 271 kts | 283° |
| 2026-05-03 21:32 | -31.45800 | -63.51165 | 6712 ft | 270 kts | 278° |
| 2026-05-03 21:33 | -31.45692 | -63.53357 | 6340 ft | 268 kts | 278° |
| 2026-05-03 21:33 | -31.45610 | -63.55526 | 6060 ft | 265 kts | 277° |
| 2026-05-03 21:33 | -31.45535 | -63.57686 | 6005 ft | 266 kts | 278° |
| 2026-05-03 21:33 | -31.45461 | -63.59855 | 5956 ft | 266 kts | 278° |
| 2026-05-03 21:34 | -31.45390 | -63.61998 | 5552 ft | 266 kts | 278° |
| 2026-05-03 21:34 | -31.45319 | -63.64148 | 5162 ft | 264 kts | 278° |
| 2026-05-03 21:34 | -31.45248 | -63.66313 | 5021 ft | 261 kts | 278° |
| 2026-05-03 21:34 | -31.45177 | -63.68414 | 5003 ft | 262 kts | 278° |
| 2026-05-03 21:35 | -31.45105 | -63.70554 | 5006 ft | 263 kts | 278° |
| 2026-05-03 21:35 | -31.45033 | -63.72688 | 5000 ft | 262 kts | 278° |
| 2026-05-03 21:35 | -31.44962 | -63.74828 | 4997 ft | 262 kts | 278° |
| 2026-05-03 21:35 | -31.44890 | -63.76963 | 5003 ft | 262 kts | 278° |
| 2026-05-03 21:36 | -31.44817 | -63.79096 | 4998 ft | 261 kts | 277° |
| 2026-05-03 21:36 | -31.44745 | -63.81218 | 4998 ft | 260 kts | 278° |
| 2026-05-03 21:36 | -31.44672 | -63.83334 | 4996 ft | 260 kts | 277° |
| 2026-05-03 21:36 | -31.44599 | -63.85449 | 4996 ft | 260 kts | 278° |
| 2026-05-03 21:37 | -31.44526 | -63.87563 | 4997 ft | 261 kts | 278° |
| 2026-05-03 21:37 | -31.44452 | -63.89684 | 4929 ft | 260 kts | 278° |
| 2026-05-03 21:37 | -31.44378 | -63.91792 | 4776 ft | 258 kts | 278° |
| 2026-05-03 21:37 | -31.44304 | -63.93886 | 4649 ft | 257 kts | 278° |
| 2026-05-03 21:38 | -31.44230 | -63.95979 | 4527 ft | 257 kts | 278° |
| 2026-05-03 21:38 | -31.44156 | -63.98068 | 4394 ft | 258 kts | 278° |
| 2026-05-03 21:38 | -31.44080 | -64.00169 | 4264 ft | 254 kts | 278° |
| 2026-05-03 21:38 | -31.44012 | -64.02174 | 4150 ft | 239 kts | 278° |
| 2026-05-03 21:39 | -31.43949 | -64.04077 | 4024 ft | 227 kts | 278° |
| 2026-05-03 21:39 | -31.43886 | -64.05884 | 3909 ft | 217 kts | 278° |
| 2026-05-03 21:39 | -31.43823 | -64.07624 | 3782 ft | 213 kts | 279° |
| 2026-05-03 21:39 | -31.43756 | -64.09358 | 3705 ft | 214 kts | 279° |
| 2026-05-03 21:40 | -31.43689 | -64.11112 | 3689 ft | 215 kts | 279° |
| 2026-05-03 21:40 | -31.43623 | -64.12866 | 3696 ft | 216 kts | 278° |
| 2026-05-03 21:40 | -31.43555 | -64.14612 | 3694 ft | 215 kts | 280° |
| 2026-05-03 21:40 | -31.43166 | -64.16239 | 3691 ft | 203 kts | 307° |
| 2026-05-03 21:41 | -31.42231 | -64.17343 | 3715 ft | 182 kts | 328° |
| 2026-05-03 21:41 | -31.41196 | -64.18109 | 3714 ft | 173 kts | 332° |
| 2026-05-03 21:41 | -31.40150 | -64.18817 | 3693 ft | 175 kts | 332° |
| 2026-05-03 21:41 | -31.39096 | -64.19529 | 3696 ft | 176 kts | 332° |
| 2026-05-03 21:42 | -31.38046 | -64.20244 | 3675 ft | 168 kts | 333° |
| 2026-05-03 21:42 | -31.37014 | -64.20678 | 3565 ft | 154 kts | 352° |
| 2026-05-03 21:42 | -31.35977 | -64.20768 | 3443 ft | 141 kts | 359° |
| 2026-05-03 21:42 | -31.35044 | -64.20791 | 3276 ft | 131 kts | 359° |
| 2026-05-03 21:43 | -31.34139 | -64.20814 | 3031 ft | 129 kts | 360° |
| 2026-05-03 21:43 | -31.33531 | -64.20830 | 3001 ft | 130 kts | 0° |
| 2026-05-03 21:43 | -31.32162 | -64.20862 | 3075 ft | 166 kts | 360° |
| 2026-05-03 21:43 | -31.30970 | -64.20887 | 2995 ft | 173 kts | 1° |
| 2026-05-03 21:44 | -31.29767 | -64.20915 | 2991 ft | 173 kts | 1° |
| 2026-05-03 21:44 | -31.28962 | -64.20933 | 2989 ft | 173 kts | 1° |
| 2026-05-03 21:44 | -31.27350 | -64.20971 | 2994 ft | 174 kts | 1° |
| 2026-05-03 21:44 | -31.26543 | -64.20991 | 2993 ft | 175 kts | 1° |
| 2026-05-03 21:45 | -31.25307 | -64.21021 | 2992 ft | 176 kts | 1° |
| 2026-05-03 21:45 | -31.24090 | -64.21052 | 3096 ft | 184 kts | 1° |
| 2026-05-03 21:45 | -31.22723 | -64.21080 | 3591 ft | 206 kts | 360° |
| 2026-05-03 21:45 | -31.21295 | -64.21104 | 4676 ft | 202 kts | 358° |
| 2026-05-03 21:46 | -31.19893 | -64.21124 | 5700 ft | 200 kts | 357° |
| 2026-05-03 21:46 | -31.18492 | -64.21142 | 6463 ft | 203 kts | 356° |
| 2026-05-03 21:46 | -31.17058 | -64.21162 | 6863 ft | 208 kts | 356° |
| 2026-05-03 21:46 | -31.15603 | -64.21184 | 6971 ft | 210 kts | 356° |
| 2026-05-03 21:47 | -31.14129 | -64.21207 | 6996 ft | 213 kts | 356° |
| 2026-05-03 21:47 | -31.12649 | -64.21231 | 6994 ft | 213 kts | 356° |
| 2026-05-03 21:47 | -31.11159 | -64.21255 | 6995 ft | 214 kts | 356° |
| 2026-05-03 21:47 | -31.09677 | -64.21278 | 6993 ft | 214 kts | 356° |
| 2026-05-03 21:48 | -31.08184 | -64.21302 | 6990 ft | 214 kts | 356° |
| 2026-05-03 21:48 | -31.06694 | -64.21326 | 6991 ft | 214 kts | 356° |
| 2026-05-03 21:48 | -31.05209 | -64.21294 | 6981 ft | 215 kts | 7° |
| 2026-05-03 21:48 | -31.03873 | -64.20519 | 6994 ft | 221 kts | 40° |
| 2026-05-03 21:49 | -31.03103 | -64.18958 | 6995 ft | 231 kts | 73° |
| 2026-05-03 21:49 | -31.03016 | -64.17061 | 7000 ft | 238 kts | 90° |
| 2026-05-03 21:49 | -31.03171 | -64.15123 | 6997 ft | 241 kts | 92° |
| 2026-05-03 21:49 | -31.03369 | -64.13183 | 6999 ft | 242 kts | 93° |
| 2026-05-03 21:50 | -31.03578 | -64.11213 | 6995 ft | 242 kts | 93° |
| 2026-05-03 21:50 | -31.03784 | -64.09282 | 6996 ft | 241 kts | 93° |
| 2026-05-03 21:50 | -31.03988 | -64.07341 | 6997 ft | 241 kts | 92° |
| 2026-05-03 21:50 | -31.04196 | -64.05397 | 6997 ft | 241 kts | 93° |
| 2026-05-03 21:51 | -31.04404 | -64.03455 | 7000 ft | 241 kts | 92° |
| 2026-05-03 21:51 | -31.04614 | -64.01510 | 6998 ft | 241 kts | 93° |
| 2026-05-03 21:51 | -31.04825 | -63.99577 | 7000 ft | 240 kts | 92° |
| 2026-05-03 21:51 | -31.05037 | -63.97640 | 6997 ft | 240 kts | 92° |
| 2026-05-03 21:52 | -31.05247 | -63.95706 | 6998 ft | 240 kts | 92° |
| 2026-05-03 21:52 | -31.05458 | -63.93766 | 7001 ft | 240 kts | 92° |
| 2026-05-03 21:52 | -31.05672 | -63.91829 | 7001 ft | 240 kts | 92° |
| 2026-05-03 21:52 | -31.05888 | -63.89896 | 6998 ft | 240 kts | 92° |
| 2026-05-03 21:53 | -31.06101 | -63.87969 | 7005 ft | 240 kts | 92° |
| 2026-05-03 21:53 | -31.06315 | -63.86036 | 7005 ft | 240 kts | 92° |
| 2026-05-03 21:53 | -31.06527 | -63.84106 | 7001 ft | 240 kts | 92° |
| 2026-05-03 21:53 | -31.06752 | -63.82182 | 7003 ft | 240 kts | 96° |
| 2026-05-03 21:54 | -31.07155 | -63.80283 | 7004 ft | 242 kts | 102° |
| 2026-05-03 21:54 | -31.07634 | -63.78392 | 7008 ft | 242 kts | 102° |
| 2026-05-03 21:54 | -31.08120 | -63.76513 | 7003 ft | 243 kts | 102° |
| 2026-05-03 21:54 | -31.08611 | -63.74632 | 7009 ft | 243 kts | 102° |
| 2026-05-03 21:55 | -31.09104 | -63.72742 | 7007 ft | 243 kts | 102° |
| 2026-05-03 21:55 | -31.09594 | -63.70857 | 7010 ft | 242 kts | 102° |
| 2026-05-03 21:55 | -31.10080 | -63.68980 | 7011 ft | 242 kts | 102° |
| 2026-05-03 21:55 | -31.10569 | -63.67092 | 7012 ft | 243 kts | 102° |
| 2026-05-03 21:56 | -31.11060 | -63.65214 | 7013 ft | 242 kts | 102° |
| 2026-05-03 21:56 | -31.11555 | -63.63332 | 7008 ft | 242 kts | 102° |
| 2026-05-03 21:56 | -31.12047 | -63.61448 | 7008 ft | 242 kts | 102° |
| 2026-05-03 21:56 | -31.12539 | -63.59559 | 7010 ft | 243 kts | 102° |
| 2026-05-03 21:57 | -31.13029 | -63.57671 | 7009 ft | 243 kts | 102° |
| 2026-05-03 21:57 | -31.13519 | -63.55781 | 7010 ft | 242 kts | 102° |
| 2026-05-03 21:57 | -31.14001 | -63.53921 | 7010 ft | 242 kts | 102° |
| 2026-05-03 21:57 | -31.14484 | -63.52049 | 7008 ft | 241 kts | 102° |
| 2026-05-03 21:58 | -31.14966 | -63.50176 | 7009 ft | 241 kts | 102° |
| 2026-05-03 21:58 | -31.15446 | -63.48293 | 7008 ft | 241 kts | 102° |
| 2026-05-03 21:58 | -31.15923 | -63.46411 | 7011 ft | 241 kts | 102° |
| 2026-05-03 21:58 | -31.16528 | -63.44578 | 7001 ft | 245 kts | 120° |
| 2026-05-03 21:59 | -31.17738 | -63.43188 | 7015 ft | 247 kts | 145° |
| 2026-05-03 21:59 | -31.19238 | -63.42175 | 7016 ft | 248 kts | 151° |
| 2026-05-03 21:59 | -31.20777 | -63.41243 | 7010 ft | 249 kts | 152° |
| 2026-05-03 21:59 | -31.22318 | -63.40323 | 7011 ft | 249 kts | 152° |
| 2026-05-03 22:00 | -31.23862 | -63.39403 | 7009 ft | 249 kts | 152° |
| 2026-05-03 22:00 | -31.25392 | -63.38492 | 7009 ft | 249 kts | 152° |
| 2026-05-03 22:00 | -31.26957 | -63.37558 | 7010 ft | 249 kts | 152° |
| 2026-05-03 22:00 | -31.28497 | -63.36640 | 7012 ft | 249 kts | 152° |
| 2026-05-03 22:01 | -31.30023 | -63.35728 | 7013 ft | 248 kts | 152° |
| 2026-05-03 22:01 | -31.31556 | -63.34809 | 7011 ft | 248 kts | 152° |
| 2026-05-03 22:01 | -31.33096 | -63.33886 | 7009 ft | 248 kts | 152° |
| 2026-05-03 22:01 | -31.34632 | -63.32964 | 7011 ft | 248 kts | 152° |
| 2026-05-03 22:02 | -31.36173 | -63.32039 | 7015 ft | 248 kts | 152° |
| 2026-05-03 22:02 | -31.37706 | -63.31119 | 7020 ft | 247 kts | 153° |
| 2026-05-03 22:02 | -31.39236 | -63.30197 | 7019 ft | 247 kts | 152° |
| 2026-05-03 22:02 | -31.40769 | -63.29274 | 7017 ft | 248 kts | 152° |
| 2026-05-03 22:03 | -31.42308 | -63.28349 | 7015 ft | 248 kts | 152° |
| 2026-05-03 22:03 | -31.43846 | -63.27426 | 6962 ft | 249 kts | 152° |
| 2026-05-03 22:03 | -31.45395 | -63.26500 | 6639 ft | 250 kts | 152° |
| 2026-05-03 22:03 | -31.46987 | -63.25666 | 6303 ft | 251 kts | 166° |
| 2026-05-03 22:04 | -31.48708 | -63.25567 | 6046 ft | 244 kts | 197° |
| 2026-05-03 22:04 | -31.50151 | -63.26446 | 6016 ft | 231 kts | 232° |
| 2026-05-03 22:04 | -31.50898 | -63.28018 | 6020 ft | 218 kts | 262° |
| 2026-05-03 22:04 | -31.51103 | -63.29740 | 6018 ft | 214 kts | 275° |
| 2026-05-03 22:05 | -31.51038 | -63.31493 | 6015 ft | 212 kts | 282° |
| 2026-05-03 22:05 | -31.50846 | -63.33203 | 6009 ft | 211 kts | 284° |
| 2026-05-03 22:05 | -31.50618 | -63.34897 | 6012 ft | 211 kts | 285° |
| 2026-05-03 22:05 | -31.50397 | -63.36601 | 6013 ft | 211 kts | 284° |
| 2026-05-03 22:06 | -31.50199 | -63.38309 | 6012 ft | 212 kts | 283° |
| 2026-05-03 22:06 | -31.50032 | -63.40004 | 6009 ft | 212 kts | 282° |
| 2026-05-03 22:06 | -31.49882 | -63.41730 | 6012 ft | 213 kts | 282° |
| 2026-05-03 22:06 | -31.49738 | -63.43455 | 6016 ft | 212 kts | 282° |
| 2026-05-03 22:07 | -31.49595 | -63.45179 | 6016 ft | 212 kts | 281° |
| 2026-05-03 22:07 | -31.49453 | -63.46891 | 6005 ft | 212 kts | 281° |
| 2026-05-03 22:07 | -31.49311 | -63.48609 | 6009 ft | 212 kts | 281° |
| 2026-05-03 22:07 | -31.49168 | -63.50324 | 6007 ft | 212 kts | 281° |
| 2026-05-03 22:08 | -31.49024 | -63.52043 | 6010 ft | 212 kts | 281° |
| 2026-05-03 22:08 | -31.48881 | -63.53764 | 6005 ft | 212 kts | 281° |
| 2026-05-03 22:08 | -31.48737 | -63.55481 | 6010 ft | 212 kts | 281° |
| 2026-05-03 22:08 | -31.48584 | -63.57260 | 6015 ft | 233 kts | 281° |
| 2026-05-03 22:09 | -31.48412 | -63.59216 | 6001 ft | 250 kts | 281° |
| 2026-05-03 22:09 | -31.48240 | -63.61268 | 6003 ft | 254 kts | 280° |
| 2026-05-03 22:09 | -31.48068 | -63.63358 | 6003 ft | 254 kts | 280° |
| 2026-05-03 22:10 | -31.47726 | -63.67468 | 6010 ft | 254 kts | 280° |
| 2026-05-03 22:10 | -31.47553 | -63.69525 | 6001 ft | 254 kts | 280° |
| 2026-05-03 22:10 | -31.47379 | -63.71586 | 6005 ft | 254 kts | 280° |
| 2026-05-03 22:10 | -31.47226 | -63.73392 | 6004 ft | 255 kts | 280° |
| 2026-05-03 22:11 | -31.47050 | -63.75459 | 6001 ft | 255 kts | 280° |
| 2026-05-03 22:11 | -31.46874 | -63.77525 | 5998 ft | 255 kts | 280° |
| 2026-05-03 22:11 | -31.46697 | -63.79593 | 5997 ft | 254 kts | 280° |
| 2026-05-03 22:11 | -31.46522 | -63.81632 | 6000 ft | 255 kts | 280° |
| 2026-05-03 22:12 | -31.46345 | -63.83703 | 5660 ft | 257 kts | 280° |
| 2026-05-03 22:12 | -31.46168 | -63.85770 | 5319 ft | 254 kts | 280° |
| 2026-05-03 22:12 | -31.45993 | -63.87813 | 4967 ft | 251 kts | 280° |
| 2026-05-03 22:12 | -31.45819 | -63.89838 | 4592 ft | 248 kts | 281° |
| 2026-05-03 22:13 | -31.45644 | -63.91853 | 4190 ft | 248 kts | 281° |
| 2026-05-03 22:13 | -31.45470 | -63.93860 | 4006 ft | 246 kts | 281° |
| 2026-05-03 22:13 | -31.45295 | -63.95862 | 3990 ft | 249 kts | 281° |
| 2026-05-03 22:13 | -31.45119 | -63.97881 | 3999 ft | 250 kts | 281° |
| 2026-05-03 22:14 | -31.44942 | -63.99908 | 3995 ft | 250 kts | 281° |
| 2026-05-03 22:14 | -31.44771 | -64.01895 | 3974 ft | 236 kts | 280° |
| 2026-05-03 22:14 | -31.44615 | -64.03730 | 4002 ft | 218 kts | 280° |
| 2026-05-03 22:14 | -31.44466 | -64.05451 | 3992 ft | 208 kts | 281° |
| 2026-05-03 22:15 | -31.44319 | -64.07122 | 4008 ft | 202 kts | 281° |
| 2026-05-03 22:15 | -31.44182 | -64.08693 | 4020 ft | 188 kts | 281° |
| 2026-05-03 22:15 | -31.44048 | -64.10208 | 4004 ft | 187 kts | 281° |
| 2026-05-03 22:15 | -31.43909 | -64.11727 | 3988 ft | 188 kts | 281° |
| 2026-05-03 22:16 | -31.43773 | -64.13251 | 4000 ft | 189 kts | 282° |
| 2026-05-03 22:16 | -31.43635 | -64.14777 | 3991 ft | 188 kts | 283° |
| 2026-05-03 22:16 | -31.43262 | -64.16216 | 3959 ft | 181 kts | 306° |
| 2026-05-03 22:16 | -31.42732 | -64.16932 | 3836 ft | 173 kts | 323° |
| 2026-05-03 22:17 | -31.41395 | -64.17978 | 3288 ft | 177 kts | 334° |
| 2026-05-03 22:17 | -31.40318 | -64.18706 | 2854 ft | 180 kts | 334° |
| 2026-05-03 22:17 | -31.39233 | -64.19440 | 2554 ft | 177 kts | 334° |
| 2026-05-03 22:17 | -31.38225 | -64.20134 | 2492 ft | 154 kts | 334° |
| 2026-05-03 22:18 | -31.37624 | -64.20511 | 2388 ft | 142 kts | 342° |
| 2026-05-03 22:18 | -31.36705 | -64.20726 | 2189 ft | 133 kts | 359° |
| 2026-05-03 22:18 | -31.35821 | -64.20755 | 2126 ft | 121 kts | 360° |
| 2026-05-03 22:18 | -31.34986 | -64.20769 | 1944 ft | 119 kts | 0° |
| 2026-05-03 22:19 | -31.34164 | -64.20781 | 1851 ft | 118 kts | 359° |
| 2026-05-03 22:19 | -31.33326 | -64.20795 | 1719 ft | 121 kts | 359° |
| 2026-05-03 22:19 | -31.32486 | -64.20810 | 1615 ft | 119 kts | 0° |
| 2026-05-03 22:19 | -31.31676 | -64.20818 | 1556 ft | 107 kts | 359° |
| 2026-05-03 22:20 | -31.31216 | -64.20828 | 1566 ft | 30 kts | 359° |
| 2026-05-03 22:20 | -31.31024 | -64.20832 | 1571 ft | 26 kts | 359° |
| 2026-05-03 22:20 | -31.30854 | -64.20834 | 1576 ft | 23 kts | 4° |
| 2026-05-03 22:20 | -31.30707 | -64.20823 | 1581 ft | 18 kts | 1° |
| 2026-05-03 22:21 | -31.30679 | -64.20848 | 1582 ft | 1 kts | 226° |
| 2026-05-03 22:21 | -31.30686 | -64.20847 | 1582 ft | 6 kts | 178° |
| 2026-05-03 22:21 | -31.30827 | -64.20836 | 1577 ft | 31 kts | 177° |
| 2026-05-03 22:21 | -31.31064 | -64.20833 | 1570 ft | 36 kts | 179° |
| 2026-05-03 22:22 | -31.31315 | -64.20828 | 1563 ft | 35 kts | 179° |
| 2026-05-03 22:22 | -31.31463 | -64.20927 | 1562 ft | 6 kts | 272° |
| 2026-05-03 22:22 | -31.31464 | -64.20965 | 1563 ft | 4 kts | 269° |
| 2026-05-03 22:22 | -31.31464 | -64.20983 | 1564 ft | 0 kts | 269° |
| 2026-05-03 22:23 | -31.31464 | -64.21009 | 1564 ft | 7 kts | 269° |
| 2026-05-03 22:24 | -31.31480 | -64.21055 | 1563 ft | 6 kts | 227° |
| 2026-05-03 22:24 | -31.31515 | -64.21076 | 1562 ft | 6 kts | 188° |
| 2026-05-03 22:24 | -31.31558 | -64.21086 | 1561 ft | 7 kts | 197° |
| 2026-05-03 22:24 | -31.31608 | -64.21101 | 1560 ft | 5 kts | 195° |
| 2026-05-03 22:25 | -31.31615 | -64.21122 | 1559 ft | 2 kts | 267° |
| 2026-05-03 22:25 | -31.31616 | -64.21145 | 1559 ft | 3 kts | 267° |
| 2026-05-03 22:25 | -31.31617 | -64.21164 | 1559 ft | 0 kts | 268° |